createdAt,value
2018-08-16T00:00:36.829Z,100203.48
2018-08-16T00:03:06.276Z,100205.02
2018-08-16T00:05:35.929Z,100203.05
2018-08-16T00:08:05.577Z,100199.35
2018-08-16T00:10:34.963Z,100199.21
2018-08-16T00:13:04.980Z,100204.54
2018-08-16T00:15:34.783Z,100206.02
2018-08-16T00:18:06.283Z,100206.98
2018-08-16T00:20:36.089Z,100207.08
2018-08-16T00:23:06.630Z,100194.47
2018-08-16T00:25:36.273Z,100194.97
2018-08-16T00:28:06.414Z,100196.33
2018-08-16T00:30:35.906Z,100196.07
2018-08-16T00:33:05.695Z,100195.77
2018-08-16T00:35:35.761Z,100196.46
2018-08-16T00:38:05.486Z,100196.67
2018-08-16T00:40:35.018Z,100196.45
2018-08-16T00:43:05.506Z,100198.55
2018-08-16T00:45:34.973Z,100196.82
2018-08-16T00:48:04.805Z,100200.23
2018-08-16T00:50:34.657Z,100195.04
2018-08-16T00:53:04.519Z,100191.27
2018-08-16T00:55:35.404Z,100190.89
2018-08-16T00:58:06.869Z,100192.26
2018-08-16T01:00:36.303Z,100189.95
2018-08-16T01:03:06.424Z,100187.61
2018-08-16T01:05:36.677Z,100191.79
2018-08-16T01:08:07.705Z,100187.89
2018-08-16T01:10:37.321Z,100185.91
2018-08-16T01:13:07.032Z,100183.58
2018-08-16T01:15:36.798Z,100177.24
2018-08-16T01:18:07.035Z,100181.47
2018-08-16T01:20:36.848Z,100178.97
2018-08-16T01:23:07.215Z,100180.28
2018-08-16T01:25:37.068Z,100164.09
2018-08-16T01:28:06.498Z,100173.34
2018-08-16T01:30:35.944Z,100174.81
2018-08-16T01:33:05.442Z,100177.73
2018-08-16T01:35:35.076Z,100176.09
2018-08-16T01:38:04.846Z,100175.07
2018-08-16T01:40:35.375Z,100171.64
2018-08-16T01:43:05.041Z,100174.55
2018-08-16T01:45:35.113Z,100174.58
2018-08-16T01:48:04.880Z,100170.02
2018-08-16T01:50:34.562Z,100165.77
2018-08-16T01:53:04.938Z,100166.46
2018-08-16T01:55:34.879Z,100162.59
2018-08-16T01:58:06.848Z,100158.40
2018-08-16T02:00:36.401Z,100160.19
2018-08-16T02:03:06.177Z,100157.09
2018-08-16T02:05:36.360Z,100162.66
2018-08-16T02:08:06.062Z,100159.99
2018-08-16T02:10:35.554Z,100164.77
2018-08-16T02:13:05.922Z,100159.73
2018-08-16T02:15:35.567Z,100163.19
2018-08-16T02:18:06.663Z,100162.75
2018-08-16T02:20:36.636Z,100162.28
2018-08-16T02:23:06.980Z,100155.30
2018-08-16T02:25:36.662Z,100152.95
2018-08-16T02:28:06.187Z,100156.97
2018-08-16T02:30:35.652Z,100154.98
2018-08-16T02:33:06.646Z,100156.56
2018-08-16T02:35:36.846Z,100151.25
2018-08-16T02:38:06.719Z,100145.93
2018-08-16T02:40:36.349Z,100142.28
2018-08-16T02:43:05.847Z,100146.56
2018-08-16T02:45:35.910Z,100149.11
2018-08-16T02:48:06.034Z,100144.89
2018-08-16T02:50:35.500Z,100141.67
2018-08-16T02:53:05.303Z,100142.20
2018-08-16T02:55:35.843Z,100138.34
2018-08-16T02:58:05.811Z,100143.59
2018-08-16T03:00:36.040Z,100140.81
2018-08-16T03:03:05.671Z,100138.19
2018-08-16T03:05:35.774Z,100140.56
2018-08-16T03:08:06.157Z,100142.76
2018-08-16T03:10:36.403Z,100135.85
2018-08-16T03:13:06.467Z,100134.06
2018-08-16T03:15:36.256Z,100131.87
2018-08-16T03:18:05.498Z,100123.38
2018-08-16T03:20:35.159Z,100125.09
2018-08-16T03:23:05.024Z,100128.75
2018-08-16T03:25:34.960Z,100120.21
2018-08-16T03:28:05.085Z,100117.47
2018-08-16T03:30:35.588Z,100112.00
2018-08-16T03:33:05.182Z,100111.87
2018-08-16T03:35:35.132Z,100114.97
2018-08-16T03:38:06.185Z,100115.13
2018-08-16T03:40:36.051Z,100113.03
2018-08-16T03:43:05.915Z,100111.80
2018-08-16T03:45:35.505Z,100111.75
2018-08-16T03:48:06.688Z,100113.38
2018-08-16T03:50:37.380Z,100109.53
2018-08-16T03:53:06.919Z,100102.61
2018-08-16T03:55:36.840Z,100111.47
2018-08-16T03:58:06.583Z,100109.66
2018-08-16T04:00:36.037Z,100108.14
2018-08-16T04:03:06.559Z,100107.06
2018-08-16T04:05:35.984Z,100111.80
2018-08-16T04:08:05.683Z,100119.05
2018-08-16T04:10:35.375Z,100114.34
2018-08-16T04:13:06.128Z,100108.22
2018-08-16T04:15:36.023Z,100112.70
2018-08-16T04:18:06.204Z,100108.42
2018-08-16T04:20:36.275Z,100110.13
2018-08-16T04:23:06.075Z,100110.69
2018-08-16T04:25:35.795Z,100110.84
2018-08-16T04:28:05.829Z,100110.20
2018-08-16T04:30:35.571Z,100106.98
2018-08-16T04:33:06.175Z,100111.19
2018-08-16T04:35:35.764Z,100108.97
2018-08-16T04:38:06.133Z,100112.07
2018-08-16T04:40:35.708Z,100114.69
2018-08-16T04:43:06.243Z,100114.16
2018-08-16T04:45:36.042Z,100108.67
2018-08-16T04:48:06.666Z,100112.55
2018-08-16T04:50:36.721Z,100109.22
2018-08-16T04:53:06.829Z,100106.95
2018-08-16T04:55:36.514Z,100106.59
2018-08-16T04:58:06.958Z,100103.68
2018-08-16T05:00:36.682Z,100111.70
2018-08-16T05:03:06.435Z,100119.55
2018-08-16T05:05:35.973Z,100113.06
2018-08-16T05:08:06.590Z,100107.09
2018-08-16T05:10:36.719Z,100108.27
2018-08-16T05:13:06.649Z,100107.15
2018-08-16T05:15:36.380Z,100106.06
2018-08-16T05:18:07.404Z,100101.84
2018-08-16T05:20:37.162Z,100104.81
2018-08-16T05:23:06.697Z,100110.89
2018-08-16T05:25:36.535Z,100108.52
2018-08-16T05:28:06.774Z,100110.19
2018-08-16T05:30:37.350Z,100107.22
2018-08-16T05:33:07.282Z,100105.45
2018-08-16T05:35:37.028Z,100103.84
2018-08-16T05:38:07.008Z,100103.42
2018-08-16T05:40:36.448Z,100098.55
2018-08-16T05:43:06.752Z,100100.53
2018-08-16T05:45:36.640Z,100092.58
2018-08-16T05:48:06.666Z,100097.48
2018-08-16T05:50:36.367Z,100094.24
2018-08-16T05:53:06.388Z,100085.37
2018-08-16T05:55:35.867Z,100093.22
2018-08-16T05:58:07.070Z,100097.87
2018-08-16T06:00:36.743Z,100092.17
2018-08-16T06:03:06.269Z,100095.63
2018-08-16T06:05:35.761Z,100096.54
2018-08-16T06:08:07.660Z,100104.13
2018-08-16T06:10:37.223Z,100099.91
2018-08-16T06:13:07.270Z,100097.80
2018-08-16T06:15:36.725Z,100091.94
2018-08-16T06:18:06.362Z,100101.10
2018-08-16T06:20:35.930Z,100098.22
2018-08-16T06:23:06.213Z,100092.81
2018-08-16T06:25:35.957Z,100087.20
2018-08-16T06:28:06.650Z,100084.11
2018-08-16T06:30:36.206Z,100080.18
2018-08-16T06:33:06.781Z,100075.44
2018-08-16T06:35:36.981Z,100076.94
2018-08-16T06:38:06.783Z,100077.28
2018-08-16T06:40:36.625Z,100078.12
2018-08-16T06:43:06.257Z,100080.95
2018-08-16T06:45:35.842Z,100078.34
2018-08-16T06:48:05.507Z,100072.13
2018-08-16T06:50:36.092Z,100075.45
2018-08-16T06:53:06.038Z,100073.70
2018-08-16T06:55:35.650Z,100075.52
2018-08-16T06:58:06.437Z,100079.62
2018-08-16T07:00:36.021Z,100069.91
2018-08-16T07:03:08.239Z,100066.42
2018-08-16T07:05:37.749Z,100069.52
2018-08-16T07:08:07.610Z,100067.55
2018-08-16T07:10:37.053Z,100054.64
2018-08-16T07:13:06.612Z,100054.94
2018-08-16T07:15:35.976Z,100050.88
2018-08-16T07:18:06.111Z,100049.11
2018-08-16T07:20:35.529Z,100053.29
2018-08-16T07:23:05.190Z,100046.36
2018-08-16T07:25:35.033Z,100045.44
2018-08-16T07:28:04.795Z,100048.03
2018-08-16T07:30:34.957Z,100047.13
2018-08-16T07:33:06.516Z,100048.70
2018-08-16T07:35:35.965Z,100048.14
2018-08-16T07:38:06.744Z,100047.58
2018-08-16T07:40:36.975Z,100046.09
2018-08-16T07:43:06.817Z,100054.33
2018-08-16T07:45:36.696Z,100047.34
2018-08-16T07:48:06.968Z,100054.11
2018-08-16T07:50:36.585Z,100054.39
2018-08-16T07:53:06.244Z,100059.02
2018-08-16T07:55:35.787Z,100053.15
2018-08-16T07:58:05.266Z,100051.73
2018-08-16T08:00:35.050Z,100051.37
2018-08-16T08:03:04.802Z,100050.02
2018-08-16T08:05:35.061Z,100053.27
2018-08-16T08:08:05.282Z,100052.27
2018-08-16T08:10:35.063Z,100049.12
2018-08-16T08:13:05.048Z,100046.36
2018-08-16T08:15:35.091Z,100040.31
2018-08-16T08:18:04.923Z,100037.19
2018-08-16T08:20:34.466Z,100036.80
2018-08-16T08:23:04.825Z,100036.77
2018-08-16T08:25:34.344Z,100035.65
2018-08-16T08:28:05.281Z,100033.10
2018-08-16T08:30:35.152Z,100031.12
2018-08-16T08:33:04.762Z,100025.84
2018-08-16T08:35:34.503Z,100017.16
2018-08-16T08:38:09.824Z,100023.80
2018-08-16T08:40:39.677Z,100014.55
2018-08-16T08:43:09.126Z,100011.81
2018-08-16T08:45:38.652Z,100009.12
2018-08-16T08:48:08.781Z,100009.95
2018-08-16T08:50:38.589Z,100010.88
2018-08-16T08:53:18.954Z,100008.16
2018-08-16T08:56:00.568Z,100000.27
2018-08-16T08:58:42.853Z,100007.55
2018-08-16T09:01:12.529Z,100007.73
2018-08-16T09:03:41.999Z,100001.72
2018-08-16T09:06:11.004Z,100000.09
2018-08-16T09:08:40.477Z,100002.23
2018-08-16T09:11:21.207Z,99996.40
2018-08-16T09:14:04.209Z,99997.21
2018-08-16T09:16:37.051Z,99992.12
2018-08-16T09:19:07.085Z,99991.06
2018-08-16T09:21:36.999Z,99989.52
2018-08-16T09:24:06.582Z,99984.01
2018-08-16T09:26:42.147Z,99985.59
2018-08-16T09:30:22.409Z,99988.96
2018-08-16T09:33:03.289Z,99982.54
2018-08-16T09:35:33.142Z,99978.34
2018-08-16T09:38:03.985Z,99974.80
2018-08-16T09:40:34.549Z,99968.22
2018-08-16T09:43:04.383Z,99968.38
2018-08-16T09:45:44.741Z,99961.63
2018-08-16T09:48:25.247Z,99953.59
2018-08-16T09:50:54.251Z,99961.09
2018-08-16T09:53:23.295Z,99958.70
2018-08-16T09:55:52.300Z,99960.79
2018-08-16T09:58:21.275Z,99964.16
2018-08-16T10:01:23.587Z,99964.56
2018-08-16T10:03:52.575Z,99956.17
2018-08-16T10:06:21.575Z,99956.70
2018-08-16T10:08:50.649Z,99953.06
2018-08-16T10:11:19.652Z,99955.22
2018-08-16T10:13:48.690Z,99952.01
2018-08-16T10:16:17.670Z,99943.13
2018-08-16T10:18:47.867Z,99951.58
2018-08-16T10:21:16.980Z,99943.05
2018-08-16T10:23:46.163Z,99932.60
2018-08-16T10:26:15.195Z,99943.09
2018-08-16T10:28:45.072Z,99940.69
2018-08-16T10:31:14.195Z,99924.54
2018-08-16T10:33:43.516Z,99932.64
2018-08-16T10:36:12.723Z,99920.69
2018-08-16T10:38:42.155Z,99918.75
2018-08-16T10:41:11.562Z,99922.00
2018-08-16T10:43:40.965Z,99916.33
2018-08-16T10:46:10.571Z,99918.59
2018-08-16T10:48:39.980Z,99918.07
2018-08-16T10:51:09.697Z,99912.58
2018-08-16T10:53:39.291Z,99916.59
2018-08-16T10:56:08.629Z,99909.91
2018-08-16T10:58:38.312Z,99903.88
2018-08-16T11:01:07.813Z,99905.88
2018-08-16T11:03:38.960Z,99906.19
2018-08-16T11:06:08.364Z,99895.95
2018-08-16T11:08:37.879Z,99898.59
2018-08-16T11:11:07.766Z,99895.48
2018-08-16T11:13:37.088Z,99887.58
2018-08-16T11:16:06.702Z,99885.24
2018-08-16T11:18:36.831Z,99882.73
2018-08-16T11:21:06.700Z,99882.69
2018-08-16T11:23:35.882Z,99879.36
2018-08-16T11:26:05.129Z,99870.80
2018-08-16T11:28:34.244Z,99870.31
2018-08-16T11:31:04.134Z,99878.77
2018-08-16T11:33:34.168Z,99870.02
2018-08-16T11:36:04.448Z,99860.44
2018-08-16T11:38:34.707Z,99864.95
2018-08-16T11:41:04.763Z,99862.30
2018-08-16T11:43:35.386Z,99864.64
2018-08-16T11:46:05.200Z,99861.97
2018-08-16T11:48:35.925Z,99861.11
2018-08-16T11:51:05.678Z,99852.47
2018-08-16T11:53:36.002Z,99848.70
2018-08-16T11:56:05.851Z,99840.70
2018-08-16T11:58:35.473Z,99844.06
2018-08-16T12:01:05.232Z,99830.70
2018-08-16T12:03:35.143Z,99827.98
2018-08-16T12:06:05.159Z,99820.61
2018-08-16T12:08:35.626Z,99825.61
2018-08-16T12:11:06.058Z,99818.99
2018-08-16T12:13:35.453Z,99820.00
2018-08-16T12:16:05.204Z,99819.61
2018-08-16T12:18:35.147Z,99817.06
2018-08-16T12:21:04.665Z,99812.72
2018-08-16T12:23:34.495Z,99809.80
2018-08-16T12:26:05.023Z,99814.73
2018-08-16T12:28:35.101Z,99804.00
2018-08-16T12:31:05.339Z,99808.59
2018-08-16T12:33:35.155Z,99815.80
2018-08-16T12:36:05.616Z,99802.00
2018-08-16T12:38:35.041Z,99798.58
2018-08-16T12:41:05.020Z,99794.72
2018-08-16T12:43:36.032Z,99792.70
2018-08-16T12:46:05.848Z,99788.81
2018-08-16T12:48:35.577Z,99795.83
2018-08-16T12:51:05.274Z,99799.48
2018-08-16T12:53:35.335Z,99797.09
2018-08-16T12:56:05.289Z,99793.50
2018-08-16T12:58:35.211Z,99793.12
2018-08-16T13:01:06.348Z,99789.52
2018-08-16T13:03:36.058Z,99783.41
2018-08-16T13:06:05.760Z,99782.94
2018-08-16T13:08:35.712Z,99776.80
2018-08-16T13:11:05.314Z,99768.52
2018-08-16T13:13:35.094Z,99765.53
2018-08-16T13:16:04.938Z,99764.77
2018-08-16T13:18:35.620Z,99763.92
2018-08-16T13:21:05.584Z,99769.09
2018-08-16T13:23:35.977Z,99756.33
2018-08-16T13:26:10.604Z,99764.66
2018-08-16T13:28:40.118Z,99752.88
2018-08-16T13:31:09.648Z,99757.05
2018-08-16T13:33:44.168Z,99751.52
2018-08-16T13:36:18.444Z,99745.96
2018-08-16T13:38:47.472Z,99744.05
2018-08-16T13:41:21.663Z,99735.98
2018-08-16T13:46:56.163Z,99742.84
2018-08-16T13:49:25.214Z,99734.80
2018-08-16T13:51:54.232Z,99734.03
2018-08-16T13:54:23.273Z,99729.46
2018-08-16T13:56:52.852Z,99730.95
2018-08-16T13:59:22.807Z,99724.69
2018-08-16T14:01:58.192Z,99713.52
2018-08-16T14:04:27.585Z,99715.72
2018-08-16T14:06:57.296Z,99709.91
2018-08-16T14:09:26.825Z,99710.77
2018-08-16T14:11:56.208Z,99703.64
2018-08-16T14:14:25.938Z,99705.44
2018-08-16T14:16:57.630Z,99701.88
2018-08-16T14:19:29.340Z,99697.31
2018-08-16T14:21:59.366Z,99693.61
2018-08-16T14:24:29.875Z,99697.98
2018-08-16T14:26:59.516Z,99688.53
2018-08-16T14:29:29.362Z,99686.98
2018-08-16T14:31:59.323Z,99684.19
2018-08-16T14:34:29.723Z,99687.55
2018-08-16T14:36:59.210Z,99686.63
2018-08-16T14:39:28.199Z,99693.28
2018-08-16T14:41:57.257Z,99695.44
2018-08-16T14:44:26.259Z,99683.36
2018-08-16T14:46:55.243Z,99697.11
2018-08-16T14:49:24.260Z,99687.59
2018-08-16T14:51:53.303Z,99683.36
2018-08-16T14:54:22.304Z,99683.84
2018-08-16T14:56:51.495Z,99681.00
2018-08-16T14:59:20.487Z,99680.27
2018-08-16T15:01:49.532Z,99673.46
2018-08-16T15:04:18.516Z,99670.47
2018-08-16T15:06:47.551Z,99668.73
2018-08-16T15:09:21.967Z,99661.60
2018-08-16T15:11:50.998Z,99670.36
2018-08-16T15:14:20.132Z,99661.34
2018-08-16T15:16:49.107Z,99665.34
2018-08-16T15:19:24.539Z,99665.32
2018-08-16T15:21:53.539Z,99665.45
2018-08-16T15:24:22.528Z,99659.30
2018-08-16T15:26:57.219Z,99664.63
2018-08-16T15:29:26.252Z,99660.34
2018-08-16T15:31:55.239Z,99658.78
2018-08-16T15:34:24.570Z,99657.90
2018-08-16T15:36:53.558Z,99649.54
2018-08-16T15:39:22.531Z,99644.50
2018-08-16T15:41:51.570Z,99641.10
2018-08-16T15:44:20.547Z,99635.63
2018-08-16T15:46:49.547Z,99636.89
2018-08-16T15:49:18.533Z,99635.57
2018-08-16T15:51:47.526Z,99631.16
2018-08-16T15:54:16.508Z,99625.90
2018-08-16T15:56:52.251Z,99623.38
2018-08-16T15:59:21.287Z,99623.27
2018-08-16T16:01:50.284Z,99624.95
2018-08-16T16:04:19.408Z,99623.73
2018-08-16T16:06:48.407Z,99621.19
2018-08-16T16:09:17.408Z,99622.95
2018-08-16T16:11:46.451Z,99620.27
2018-08-16T16:14:15.456Z,99622.38
2018-08-16T16:16:44.431Z,99621.95
2018-08-16T16:19:13.408Z,99620.91
2018-08-16T16:21:42.424Z,99620.22
2018-08-16T16:24:11.389Z,99618.41
2018-08-16T16:26:40.372Z,99616.26
2018-08-16T16:29:09.351Z,99610.44
2018-08-16T16:31:38.351Z,99608.48
2018-08-16T16:34:07.604Z,99602.27
2018-08-16T16:36:36.707Z,99598.41
2018-08-16T16:39:08.911Z,99597.89
2018-08-16T16:41:38.015Z,99589.45
2018-08-16T16:44:07.183Z,99592.21
2018-08-16T16:46:36.187Z,99590.48
2018-08-16T16:49:05.515Z,99586.48
2018-08-16T16:51:34.512Z,99582.58
2018-08-16T16:54:03.564Z,99583.70
2018-08-16T16:56:33.024Z,99588.25
2018-08-16T16:59:02.123Z,99594.89
2018-08-16T17:01:31.136Z,99586.48
2018-08-16T17:04:00.154Z,99586.61
2018-08-16T17:06:29.119Z,99581.78
2018-08-16T17:08:58.098Z,99587.68
2018-08-16T17:11:27.124Z,99575.42
2018-08-16T17:13:56.115Z,99578.45
2018-08-16T17:16:25.186Z,99573.66
2018-08-16T17:18:54.252Z,99575.48
2018-08-16T17:21:23.263Z,99578.77
2018-08-16T17:23:52.292Z,99579.34
2018-08-16T17:26:21.330Z,99582.67
2018-08-16T17:28:50.352Z,99575.41
2018-08-16T17:31:19.359Z,99579.26
2018-08-16T17:33:48.331Z,99576.63
2018-08-16T17:36:17.343Z,99579.36
2018-08-16T17:38:46.327Z,99581.37
2018-08-16T17:41:15.347Z,99586.28
2018-08-16T17:43:44.335Z,99583.44
2018-08-16T17:46:13.339Z,99590.97
2018-08-16T17:48:42.335Z,99593.12
2018-08-16T17:51:11.326Z,99586.45
2018-08-16T17:53:40.327Z,99582.48
2018-08-16T17:56:09.427Z,99578.70
2018-08-16T17:58:38.414Z,99577.30
2018-08-16T18:01:07.427Z,99573.90
2018-08-16T18:03:36.466Z,99577.62
2018-08-16T18:06:05.493Z,99575.14
2018-08-16T18:08:34.588Z,99576.09
2018-08-16T18:11:03.615Z,99578.92
2018-08-16T18:13:32.591Z,99579.66
2018-08-16T18:16:01.596Z,99577.90
2018-08-16T18:18:30.563Z,99575.90
2018-08-16T18:20:59.558Z,99582.41
2018-08-16T18:23:28.539Z,99582.75
2018-08-16T18:25:57.547Z,99582.20
2018-08-16T18:28:26.524Z,99584.09
2018-08-16T18:30:55.530Z,99582.37
2018-08-16T18:33:24.535Z,99580.33
2018-08-16T18:35:53.573Z,99584.21
2018-08-16T18:38:22.507Z,99586.69
2018-08-16T18:40:51.575Z,99588.52
2018-08-16T18:43:20.543Z,99582.78
2018-08-16T18:45:49.534Z,99586.61
2018-08-16T18:48:18.514Z,99586.08
2018-08-16T18:50:47.518Z,99587.16
2018-08-16T18:53:16.508Z,99588.04
2018-08-16T18:55:45.476Z,99581.79
2018-08-16T18:58:14.459Z,99580.52
2018-08-16T19:00:43.492Z,99589.42
2018-08-16T19:03:12.453Z,99587.23
2018-08-16T19:05:41.607Z,99584.81
2018-08-16T19:08:10.479Z,99595.80
2018-08-16T19:10:39.507Z,99594.22
2018-08-16T19:13:08.512Z,99598.86
2018-08-16T19:15:37.523Z,99598.48
2018-08-16T19:18:06.599Z,99602.14
2018-08-16T19:20:35.788Z,99595.69
2018-08-16T19:23:04.940Z,99604.69
2018-08-16T19:25:33.937Z,99604.64
2018-08-16T19:28:02.920Z,99598.44
2018-08-16T19:30:31.935Z,99602.80
2018-08-16T19:33:00.952Z,99597.33
2018-08-16T19:35:29.954Z,99595.34
2018-08-16T19:37:58.939Z,99597.83
2018-08-16T19:40:28.012Z,99602.19
2018-08-16T19:42:56.990Z,99602.39
2018-08-16T19:45:25.988Z,99597.71
2018-08-16T19:47:55.152Z,99604.65
2018-08-16T19:50:24.147Z,99599.73
2018-08-16T19:52:53.100Z,99601.50
2018-08-16T19:55:22.093Z,99606.55
2018-08-16T19:57:51.064Z,99603.01
2018-08-16T20:00:20.046Z,99603.01
2018-08-16T20:02:49.054Z,99604.55
2018-08-16T20:05:18.035Z,99596.70
2018-08-16T20:07:47.012Z,99594.80
2018-08-16T20:10:16.043Z,99593.73
2018-08-16T20:12:45.021Z,99592.80
2018-08-16T20:15:14.108Z,99600.72
2018-08-16T20:17:43.103Z,99593.48
2018-08-16T20:20:12.180Z,99591.98
2018-08-16T20:22:41.198Z,99597.72
2018-08-16T20:25:10.301Z,99597.72
2018-08-16T20:27:39.220Z,99599.84
2018-08-16T20:30:08.217Z,99602.31
2018-08-16T20:32:37.570Z,99602.89
2018-08-16T20:35:06.638Z,99602.30
2018-08-16T20:37:35.649Z,99608.41
2018-08-16T20:40:05.304Z,99608.09
2018-08-16T20:42:34.341Z,99606.77
2018-08-16T20:45:03.348Z,99612.70
2018-08-16T20:47:32.319Z,99607.67
2018-08-16T20:50:01.315Z,99614.38
2018-08-16T20:52:31.544Z,99613.73
2018-08-16T20:55:00.527Z,99611.53
2018-08-16T20:57:29.749Z,99618.00
2018-08-16T20:59:58.575Z,99614.31
2018-08-16T21:02:27.576Z,99613.15
2018-08-16T21:04:56.576Z,99612.83
2018-08-16T21:07:25.571Z,99602.69
2018-08-16T21:09:54.559Z,99610.56
2018-08-16T21:12:23.579Z,99615.30
2018-08-16T21:14:52.589Z,99615.67
2018-08-16T21:17:21.692Z,99608.56
2018-08-16T21:19:50.671Z,99607.36
2018-08-16T21:22:19.673Z,99605.21
2018-08-16T21:24:48.655Z,99602.68
2018-08-16T21:27:17.650Z,99599.12
2018-08-16T21:29:46.619Z,99600.47
2018-08-16T21:32:15.619Z,99597.80
2018-08-16T21:34:44.608Z,99603.62
2018-08-16T21:37:13.686Z,99596.77
2018-08-16T21:39:42.665Z,99597.33
2018-08-16T21:42:11.657Z,99597.66
2018-08-16T21:44:40.823Z,99600.49
2018-08-16T21:47:09.902Z,99599.53
2018-08-16T21:49:38.876Z,99604.53
2018-08-16T21:52:08.092Z,99601.84
2018-08-16T21:54:36.975Z,99603.31
2018-08-16T21:57:05.982Z,99601.73
2018-08-16T21:59:35.015Z,99607.75
2018-08-16T22:02:04.059Z,99603.02
2018-08-16T22:04:33.031Z,99602.76
2018-08-16T22:08:10.456Z,99607.27
2018-08-16T22:10:40.519Z,99607.45
2018-08-16T22:13:09.659Z,99609.38
2018-08-16T22:15:38.781Z,99609.38
2018-08-16T22:18:07.993Z,99610.06
2018-08-16T22:20:36.898Z,99605.02
2018-08-16T22:23:06.075Z,99604.42
2018-08-16T22:25:35.046Z,99605.96
2018-08-16T22:28:04.059Z,99606.55
2018-08-16T22:30:33.068Z,99604.40
2018-08-16T22:33:02.167Z,99608.69
2018-08-16T22:35:31.131Z,99607.71
2018-08-16T22:38:06.503Z,99613.67
2018-08-16T22:40:35.494Z,99611.34
2018-08-16T22:43:04.511Z,99605.03
2018-08-16T22:45:33.519Z,99608.62
2018-08-16T22:48:02.650Z,99598.72
2018-08-16T22:50:31.630Z,99598.64
2018-08-16T22:53:00.648Z,99599.30
2018-08-16T22:55:29.662Z,99605.53
2018-08-16T22:57:58.735Z,99600.73
2018-08-16T23:00:27.710Z,99593.78
2018-08-16T23:02:56.766Z,99595.83
2018-08-16T23:05:25.735Z,99595.75
2018-08-16T23:07:54.798Z,99591.45
2018-08-16T23:10:23.788Z,99599.61
2018-08-16T23:12:52.789Z,99602.16
2018-08-16T23:15:21.819Z,99599.36
2018-08-16T23:17:50.843Z,99601.16
2018-08-16T23:20:19.806Z,99599.86
2018-08-16T23:22:48.815Z,99596.11
2018-08-16T23:25:17.795Z,99595.66
2018-08-16T23:27:46.851Z,99590.99
2018-08-16T23:30:16.315Z,99586.55
2018-08-16T23:32:45.311Z,99585.59
2018-08-16T23:35:14.386Z,99580.59
2018-08-16T23:37:43.434Z,99581.07
2018-08-16T23:40:13.464Z,99585.35
2018-08-16T23:42:42.559Z,99580.88
2018-08-16T23:45:11.907Z,99587.77
2018-08-16T23:47:41.003Z,99578.98
2018-08-16T23:50:11.228Z,99585.98
2018-08-16T23:52:40.219Z,99582.30
2018-08-16T23:55:09.463Z,99580.00
2018-08-16T23:57:38.422Z,99580.77
